Stations météo

Publicité
Kinbrace, Grande-Bretagne (99016): Température de l'air & dewpoint: 14.08.2019 13:00:00 - 20.08.2019 13:00:00 (BST)Kinbrace, Grande-Bretagne (99016): Vitesse du vent & gusts: 14.08.2019 13:00:00 - 20.08.2019 13:00:00 (BST)Kinbrace, Grande-Bretagne (99016): Direction du vent: 14.08.2019 13:00:00 - 20.08.2019 13:00:00 (BST)Kinbrace, Grande-Bretagne (99016): Quantités de précipitations: 14.08.2019 13:00:00 - 20.08.2019 13:00:00 (BST)
Date & Time tt [°C] td [°C] ff [km/h] ff [knt] fx [km/h] fx [knt] dd rr [mm]
20.08.2019 13:00:00 14,3 7,6 21 11 - - NW -
20.08.2019 12:00:00 13,0 7,7 16 9 - - NW 0,0
20.08.2019 11:00:00 12,4 7,4 16 9 - - WNW 0,0
20.08.2019 10:00:00 11,9 7,1 18 10 - - WNW 0,0
20.08.2019 09:00:00 11,8 7,9 13 7 - - WNW 0,0
20.08.2019 08:00:00 9,3 8,9 2 1 - - NNW 0,0
20.08.2019 07:00:00 8,2 7,9 4 2 - - N 0,0
20.08.2019 06:00:00 7,5 7,2 4 2 - - NW 0,0
20.08.2019 05:00:00 6,4 6,0 5 3 - - N 0,0
20.08.2019 04:00:00 5,7 4,8 9 5 - - N 0,0
20.08.2019 03:00:00 7,5 6,9 0 0 - - N 0,0
20.08.2019 02:00:00 7,8 7,0 2 1 - - SSW 0,0
20.08.2019 01:00:00 8,8 7,7 4 2 - - W 0,0
20.08.2019 00:00:00 9,2 8,4 9 5 - - NNW 0,0
19.08.2019 23:00:00 9,7 8,9 9 5 - - NW 0,0
19.08.2019 22:00:00 10,3 9,4 18 10 - - NNW 0,0
19.08.2019 21:00:00 10,3 8,9 15 8 - - NNW 0,0
19.08.2019 20:00:00 11,3 10,4 21 11 - - NW 0,6
19.08.2019 19:00:00 12,3 11,0 18 10 - - WNW 0,2
19.08.2019 18:00:00 14,1 10,2 18 10 - - WNW 0,0
19.08.2019 17:00:00 14,3 10,5 21 11 - - WNW 0,0
19.08.2019 16:00:00 13,3 11,6 11 6 - - WNW 0,2
19.08.2019 15:00:00 13,8 11,1 18 10 - - WNW 0,0
19.08.2019 14:00:00 13,9 12,0 22 12 - - WNW 0,6
19.08.2019 13:00:00 14,5 11,3 31 17 46 25 WSW 0,0
19.08.2019 12:00:00 14,3 11,6 22 12 - - W 0,0
19.08.2019 11:00:00 14,3 11,0 21 11 - - WSW 0,0
19.08.2019 10:00:00 14,4 10,9 26 14 - - WSW 0,0
19.08.2019 09:00:00 12,9 9,8 18 10 - - WNW 0,0
19.08.2019 08:00:00 12,5 10,2 11 6 - - W 0,0
19.08.2019 07:00:00 11,5 10,5 8 4 - - SSW 0,0
19.08.2019 06:00:00 11,2 9,5 8 4 - - SSW 0,0
19.08.2019 05:00:00 11,9 10,2 8 4 - - WSW 0,0
19.08.2019 04:00:00 11,4 10,1 8 4 - - SW 0,0
19.08.2019 03:00:00 12,1 10,8 9 5 - - WSW 0,0
19.08.2019 02:00:00 12,0 10,8 8 4 - - W 0,2
19.08.2019 01:00:00 12,3 10,8 9 5 - - W 0,4
19.08.2019 00:00:00 11,8 10,6 8 4 - - WSW 0,0
18.08.2019 23:00:00 11,5 10,2 9 5 - - NW 0,0
18.08.2019 22:00:00 11,9 10,4 9 5 - - NW 0,0
18.08.2019 21:00:00 12,1 11,0 15 8 - - NNW 0,0
18.08.2019 20:00:00 13,6 11,3 18 10 - - WNW 0,0
18.08.2019 19:00:00 13,6 11,8 15 8 - - WNW 0,2
18.08.2019 18:00:00 14,3 10,2 21 11 - - W 0,0
18.08.2019 17:00:00 13,9 11,8 11 6 - - N 0,0
18.08.2019 16:00:00 13,9 12,1 9 5 - - N 0,6
18.08.2019 15:00:00 15,9 12,1 13 7 - - WSW 0,4
18.08.2019 14:00:00 13,1 10,9 11 6 - - S 0,4
18.08.2019 13:00:00 17,3 11,1 22 12 - - S 0,0
18.08.2019 12:00:00 16,0 10,1 28 15 - - S 0,0
18.08.2019 11:00:00 14,0 9,8 24 13 - - S 0,0
18.08.2019 10:00:00 14,4 10,6 22 12 - - S 0,0
18.08.2019 09:00:00 14,3 10,8 21 11 - - S 0,0
18.08.2019 08:00:00 12,4 10,1 21 11 - - S 0,0
18.08.2019 07:00:00 11,1 9,5 16 9 - - SE 0,0
18.08.2019 06:00:00 11,5 9,3 15 8 - - SSE 0,0
18.08.2019 05:00:00 12,7 9,6 21 11 - - S 0,0
18.08.2019 04:00:00 12,4 9,3 24 13 - - SSE 0,0
18.08.2019 03:00:00 12,4 9,2 26 14 - - S 0,0
18.08.2019 02:00:00 12,3 9,5 24 13 50 27 SSE 0,0
18.08.2019 01:00:00 12,3 9,4 31 17 46 25 SSE 0,0
18.08.2019 00:00:00 11,9 9,9 28 15 - - SSE 0,8
17.08.2019 23:00:00 12,3 9,5 28 15 - - SSE 0,0
17.08.2019 22:00:00 11,9 8,9 26 14 - - SSE 0,0
17.08.2019 21:00:00 12,2 9,9 26 14 - - SSE 0,4
17.08.2019 20:00:00 11,2 9,2 18 10 - - SE 2,6
17.08.2019 19:00:00 12,2 9,5 21 11 - - SSE 0,6
17.08.2019 18:00:00 14,1 9,0 21 11 - - S 0,0
17.08.2019 17:00:00 15,6 8,1 16 9 - - S 0,0
17.08.2019 16:00:00 16,8 7,1 28 15 - - SW 0,0
17.08.2019 15:00:00 14,5 6,7 16 9 - - SSW 0,0
17.08.2019 14:00:00 15,6 7,2 18 10 - - SW 0,0
17.08.2019 13:00:00 14,1 8,2 16 9 - - WSW 0,0
17.08.2019 12:00:00 15,0 7,6 21 11 - - SW 0,0
17.08.2019 11:00:00 14,3 9,0 15 8 - - W 0,0
17.08.2019 10:00:00 14,5 9,8 24 13 - - W 0,0
17.08.2019 09:00:00 11,7 8,6 11 6 - - WSW 0,0
17.08.2019 08:00:00 11,5 9,0 15 8 - - W 0,2
17.08.2019 07:00:00 13,0 11,4 15 8 - - S 0,2
17.08.2019 06:00:00 12,4 11,3 15 8 - - ESE 0,0
17.08.2019 05:00:00 13,1 11,4 15 8 - - SE 0,0
17.08.2019 04:00:00 12,1 11,2 8 4 - - S 0,0
17.08.2019 03:00:00 10,9 9,6 4 2 - - E 0,0
17.08.2019 02:00:00 12,7 11,2 15 8 - - SE 0,0
17.08.2019 01:00:00 12,1 10,4 11 6 - - E 0,0
17.08.2019 00:00:00 12,7 10,8 9 5 - - E 0,0
16.08.2019 23:00:00 13,0 10,7 9 5 - - SSE 0,0
16.08.2019 22:00:00 13,7 11,3 13 7 - - ESE 0,0
16.08.2019 21:00:00 14,2 11,8 9 5 - - E 0,0
16.08.2019 20:00:00 16,3 11,2 16 9 - - S 0,0
16.08.2019 19:00:00 18,1 10,9 15 8 - - SW 0,0
16.08.2019 18:00:00 19,2 14,0 5 3 - - NNW 0,4
16.08.2019 17:00:00 15,1 13,7 15 8 52 28 WSW 0,6
16.08.2019 16:00:00 20,5 14,8 26 14 - - S 0,0
16.08.2019 15:00:00 19,3 13,6 28 15 - - S 0,0
16.08.2019 14:00:00 17,3 13,9 31 17 48 26 SSE 0,2
16.08.2019 13:00:00 15,4 13,1 39 21 50 27 SE 0,0
16.08.2019 12:00:00 15,3 13,1 34 18 50 27 SE 0,0
16.08.2019 11:00:00 14,5 13,2 37 20 48 26 SE 0,0
16.08.2019 10:00:00 14,0 12,9 35 19 - - SE 0,8
16.08.2019 09:00:00 13,6 12,5 31 17 - - SE 0,8
16.08.2019 08:00:00 13,2 12,3 29 16 - - SE 0,6
16.08.2019 07:00:00 13,0 12,0 31 17 - - SE 0,8
16.08.2019 06:00:00 12,9 11,8 28 15 - - SE 1,0
16.08.2019 05:00:00 13,0 11,6 26 14 - - SE 0,0
16.08.2019 04:00:00 12,5 11,1 21 11 - - ESE 0,4
16.08.2019 03:00:00 12,3 10,9 24 13 - - SE 0,4
16.08.2019 02:00:00 12,1 10,3 18 10 - - SE 0,0
16.08.2019 01:00:00 12,2 9,0 16 9 - - ESE 0,0
16.08.2019 00:00:00 12,0 8,3 15 8 - - SE 0,0
15.08.2019 23:00:00 11,1 7,0 16 9 - - ESE 0,0
15.08.2019 22:00:00 11,9 7,6 11 6 - - SE 0,0
15.08.2019 21:00:00 11,5 7,3 4 2 - - W 0,0
15.08.2019 20:00:00 13,3 5,7 8 4 - - W 0,0
15.08.2019 19:00:00 14,8 6,8 15 8 - - W 0,0
15.08.2019 18:00:00 14,0 7,5 21 11 - - WNW 0,0
15.08.2019 17:00:00 14,6 7,2 28 15 - - WNW 0,0
15.08.2019 16:00:00 14,4 7,7 22 12 - - NW 0,0
15.08.2019 15:00:00 15,9 8,1 28 15 46 25 NW 0,0
15.08.2019 14:00:00 15,7 7,6 28 15 46 25 WNW 0,0
15.08.2019 13:00:00 13,7 8,3 26 14 - - NW 0,0
15.08.2019 12:00:00 13,1 8,3 29 16 48 26 NW 0,0
15.08.2019 11:00:00 13,5 10,1 37 20 55 30 NW 0,0
15.08.2019 10:00:00 11,9 10,4 34 18 54 29 NNW 0,0
15.08.2019 09:00:00 11,3 10,5 26 14 46 25 NNW 0,2
15.08.2019 08:00:00 12,7 12,3 21 11 - - NW 0,4
15.08.2019 07:00:00 12,7 12,3 2 1 - - NE 0,0
15.08.2019 06:00:00 12,0 11,5 2 1 - - E 0,0
15.08.2019 05:00:00 12,7 12,1 4 2 - - SSW 0,0
15.08.2019 04:00:00 13,2 12,4 11 6 - - SE 0,0
15.08.2019 03:00:00 13,2 12,5 18 10 - - SE 0,0
15.08.2019 02:00:00 13,0 12,3 21 11 - - SE 1,0
15.08.2019 01:00:00 12,7 12,1 21 11 - - SE 0,4
15.08.2019 00:00:00 12,7 11,9 21 11 - - SE 1,2
14.08.2019 23:00:00 12,9 12,0 21 11 - - SE 2,0
14.08.2019 22:00:00 13,3 12,1 22 12 - - SE 0,8
14.08.2019 21:00:00 13,8 11,2 26 14 - - SE 0,0
14.08.2019 20:00:00 14,4 10,5 18 10 - - SE 0,0
14.08.2019 19:00:00 14,4 9,7 18 10 - - SE 0,0
14.08.2019 18:00:00 15,2 10,0 18 10 - - SSE 0,0
14.08.2019 17:00:00 15,7 10,1 21 11 - - SE 0,0
14.08.2019 16:00:00 14,6 8,7 21 11 - - SSE 0,0
14.08.2019 15:00:00 14,0 7,9 21 11 - - SE 0,0
14.08.2019 14:00:00 14,0 7,3 28 15 - - SE 0,0
14.08.2019 13:00:00 15,0 8,9 22 12 - - SE 0,0

tt = Température de l'air
td = dewpoint
ff = Vitesse du vent
fx = gusts
dd = Direction du vent
rr = Quantités de précipitations

stations d'obs. à proximité